sensor_id;sensor_type;location;lat;lon;timestamp;pressure;altitude;pressure_sealevel;temperature;humidity
33151;BME280;19508;42.578;23.416;2022-12-11T00:01:34;91636.31;;;11.21;84.91
33151;BME280;19508;42.578;23.416;2022-12-11T00:03:59;91639.47;;;11.23;84.13
33151;BME280;19508;42.578;23.416;2022-12-11T00:06:24;91657.09;;;11.29;83.82
33151;BME280;19508;42.578;23.416;2022-12-11T00:08:51;91647.25;;;11.24;83.50
33151;BME280;19508;42.578;23.416;2022-12-11T00:11:18;91652.72;;;11.11;83.83
33151;BME280;19508;42.578;23.416;2022-12-11T00:13:44;91645.69;;;11.01;84.05
33151;BME280;19508;42.578;23.416;2022-12-11T00:16:09;91636.34;;;10.98;84.31
33151;BME280;19508;42.578;23.416;2022-12-11T00:18:35;91643.31;;;10.99;84.30
33151;BME280;19508;42.578;23.416;2022-12-11T00:21:06;91636.22;;;11.04;84.65
33151;BME280;19508;42.578;23.416;2022-12-11T00:23:33;91642.22;;;11.00;85.40
33151;BME280;19508;42.578;23.416;2022-12-11T00:25:59;91647.94;;;11.08;84.67
33151;BME280;19508;42.578;23.416;2022-12-11T00:28:24;91634.63;;;11.02;84.29
33151;BME280;19508;42.578;23.416;2022-12-11T00:30:50;91623.88;;;11.02;84.02
33151;BME280;19508;42.578;23.416;2022-12-11T00:33:16;91620.78;;;10.87;83.81
33151;BME280;19508;42.578;23.416;2022-12-11T00:35:43;91608.84;;;10.79;83.98
33151;BME280;19508;42.578;23.416;2022-12-11T00:38:18;91630.13;;;10.89;83.81
33151;BME280;19508;42.578;23.416;2022-12-11T00:40:45;91617.66;;;10.71;83.91
33151;BME280;19508;42.578;23.416;2022-12-11T00:43:11;91615.81;;;10.58;84.85
33151;BME280;19508;42.578;23.416;2022-12-11T00:45:38;91625.94;;;10.52;84.42
33151;BME280;19508;42.578;23.416;2022-12-11T00:48:05;91615.59;;;10.45;84.95
33151;BME280;19508;42.578;23.416;2022-12-11T00:50:30;91614.25;;;10.34;85.06
33151;BME280;19508;42.578;23.416;2022-12-11T00:52:56;91605.69;;;10.32;84.75
33151;BME280;19508;42.578;23.416;2022-12-11T00:55:21;91612.38;;;10.21;85.75
33151;BME280;19508;42.578;23.416;2022-12-11T00:57:46;91627.91;;;10.24;86.23
33151;BME280;19508;42.578;23.416;2022-12-11T01:00:15;91620.63;;;10.25;86.90
33151;BME280;19508;42.578;23.416;2022-12-11T01:02:40;91638.19;;;10.22;86.49
33151;BME280;19508;42.578;23.416;2022-12-11T01:05:08;91637.09;;;10.23;86.36
33151;BME280;19508;42.578;23.416;2022-12-11T01:07:33;91644.16;;;10.19;85.96
33151;BME280;19508;42.578;23.416;2022-12-11T01:09:58;91643.56;;;10.22;85.91
33151;BME280;19508;42.578;23.416;2022-12-11T01:12:42;91630.94;;;10.09;87.41
33151;BME280;19508;42.578;23.416;2022-12-11T01:15:08;91646.19;;;10.00;88.16
33151;BME280;19508;42.578;23.416;2022-12-11T01:17:33;91638.41;;;10.12;87.97
33151;BME280;19508;42.578;23.416;2022-12-11T01:19:59;91622.84;;;10.23;87.01
33151;BME280;19508;42.578;23.416;2022-12-11T01:22:24;91618.84;;;10.20;87.40
33151;BME280;19508;42.578;23.416;2022-12-11T01:24:49;91632.09;;;10.30;87.68
33151;BME280;19508;42.578;23.416;2022-12-11T01:27:15;91648.94;;;10.22;87.35
33151;BME280;19508;42.578;23.416;2022-12-11T01:29:40;91654.81;;;10.24;88.01
33151;BME280;19508;42.578;23.416;2022-12-11T01:32:06;91666.25;;;10.30;88.52
33151;BME280;19508;42.578;23.416;2022-12-11T01:34:31;91631.59;;;10.28;89.10
33151;BME280;19508;42.578;23.416;2022-12-11T01:36:57;91632.88;;;10.31;90.87
33151;BME280;19508;42.578;23.416;2022-12-11T01:39:23;91650.13;;;10.30;91.95
33151;BME280;19508;42.578;23.416;2022-12-11T01:41:48;91639.53;;;10.33;90.70
33151;BME280;19508;42.578;23.416;2022-12-11T01:46:39;91639.19;;;10.26;91.50
33151;BME280;19508;42.578;23.416;2022-12-11T01:49:08;91625.59;;;10.31;92.75
33151;BME280;19508;42.578;23.416;2022-12-11T01:51:40;91611.56;;;10.34;92.93
33151;BME280;19508;42.578;23.416;2022-12-11T01:54:11;91635.38;;;10.50;92.46
33151;BME280;19508;42.578;23.416;2022-12-11T01:56:39;91659.13;;;10.70;96.58
33151;BME280;19508;42.578;23.416;2022-12-11T01:59:07;91635.00;;;11.89;96.11
33151;BME280;19508;42.578;23.416;2022-12-11T02:01:38;91648.88;;;12.48;90.83
33151;BME280;19508;42.578;23.416;2022-12-11T02:04:06;91627.06;;;12.88;88.44
33151;BME280;19508;42.578;23.416;2022-12-11T02:06:34;91600.53;;;12.90;87.35
33151;BME280;19508;42.578;23.416;2022-12-11T02:09:01;91602.75;;;12.96;84.14
33151;BME280;19508;42.578;23.416;2022-12-11T02:11:39;91591.75;;;13.10;84.40
33151;BME280;19508;42.578;23.416;2022-12-11T02:14:27;91593.97;;;13.17;85.21
33151;BME280;19508;42.578;23.416;2022-12-11T02:17:13;91605.34;;;13.40;84.57
33151;BME280;19508;42.578;23.416;2022-12-11T02:28:00;91590.34;;;14.10;80.49
33151;BME280;19508;42.578;23.416;2022-12-11T02:30:26;91591.53;;;14.21;79.70
33151;BME280;19508;42.578;23.416;2022-12-11T02:32:57;91592.06;;;14.35;78.38
33151;BME280;19508;42.578;23.416;2022-12-11T02:35:32;91584.16;;;14.30;78.61
33151;BME280;19508;42.578;23.416;2022-12-11T02:38:12;91582.63;;;14.42;78.12
33151;BME280;19508;42.578;23.416;2022-12-11T02:40:41;91557.63;;;14.45;77.56
33151;BME280;19508;42.578;23.416;2022-12-11T02:43:10;91514.69;;;14.34;76.35
33151;BME280;19508;42.578;23.416;2022-12-11T02:45:39;91486.69;;;14.51;75.82
33151;BME280;19508;42.578;23.416;2022-12-11T02:48:07;91504.66;;;14.56;75.28
33151;BME280;19508;42.578;23.416;2022-12-11T02:50:37;91508.44;;;14.76;73.71
33151;BME280;19508;42.578;23.416;2022-12-11T02:53:05;91527.47;;;14.67;73.56
33151;BME280;19508;42.578;23.416;2022-12-11T02:55:32;91543.97;;;14.74;72.81
33151;BME280;19508;42.578;23.416;2022-12-11T02:58:21;91550.97;;;14.75;72.95
33151;BME280;19508;42.578;23.416;2022-12-11T03:00:47;91549.50;;;14.78;71.73
33151;BME280;19508;42.578;23.416;2022-12-11T03:03:13;91546.09;;;14.68;71.77
33151;BME280;19508;42.578;23.416;2022-12-11T03:05:39;91547.03;;;14.73;71.37
33151;BME280;19508;42.578;23.416;2022-12-11T03:08:06;91562.50;;;14.72;72.10
33151;BME280;19508;42.578;23.416;2022-12-11T03:10:31;91555.19;;;14.85;71.39
33151;BME280;19508;42.578;23.416;2022-12-11T03:12:57;91561.63;;;14.80;71.23
33151;BME280;19508;42.578;23.416;2022-12-11T03:21:32;91563.44;;;14.88;69.57
33151;BME280;19508;42.578;23.416;2022-12-11T03:24:09;91567.81;;;14.48;71.78
33151;BME280;19508;42.578;23.416;2022-12-11T03:26:42;91569.66;;;14.56;71.51
33151;BME280;19508;42.578;23.416;2022-12-11T03:29:19;91583.94;;;14.77;69.90
33151;BME280;19508;42.578;23.416;2022-12-11T03:31:58;91573.56;;;14.46;71.26
33151;BME280;19508;42.578;23.416;2022-12-11T03:34:34;91601.38;;;14.88;69.46
33151;BME280;19508;42.578;23.416;2022-12-11T03:37:03;91594.75;;;15.10;68.70
33151;BME280;19508;42.578;23.416;2022-12-11T03:39:43;91607.09;;;15.20;68.71
33151;BME280;19508;42.578;23.416;2022-12-11T03:42:12;91603.50;;;15.16;68.27
33151;BME280;19508;42.578;23.416;2022-12-11T03:44:40;91612.28;;;15.13;68.43
33151;BME280;19508;42.578;23.416;2022-12-11T03:47:07;91598.25;;;15.11;68.26
33151;BME280;19508;42.578;23.416;2022-12-11T03:49:37;91595.63;;;14.90;69.79
33151;BME280;19508;42.578;23.416;2022-12-11T03:52:05;91594.03;;;14.89;69.44
33151;BME280;19508;42.578;23.416;2022-12-11T03:54:32;91602.00;;;15.06;67.05
33151;BME280;19508;42.578;23.416;2022-12-11T03:57:00;91580.66;;;15.05;67.28
33151;BME280;19508;42.578;23.416;2022-12-11T03:59:27;91594.75;;;15.10;66.71
33151;BME280;19508;42.578;23.416;2022-12-11T04:01:52;91583.13;;;14.98;67.16
33151;BME280;19508;42.578;23.416;2022-12-11T04:04:18;91578.84;;;15.09;67.24
33151;BME280;19508;42.578;23.416;2022-12-11T04:06:44;91586.28;;;15.12;67.71
33151;BME280;19508;42.578;23.416;2022-12-11T04:09:10;91597.94;;;15.12;66.36
33151;BME280;19508;42.578;23.416;2022-12-11T04:11:35;91603.53;;;14.95;66.17
33151;BME280;19508;42.578;23.416;2022-12-11T04:14:06;91639.41;;;15.13;65.51
33151;BME280;19508;42.578;23.416;2022-12-11T04:16:51;91633.16;;;14.79;66.00
33151;BME280;19508;42.578;23.416;2022-12-11T04:19:17;91626.75;;;15.17;63.94
33151;BME280;19508;42.578;23.416;2022-12-11T04:22:01;91640.81;;;15.43;63.08
33151;BME280;19508;42.578;23.416;2022-12-11T04:24:39;91641.78;;;14.93;64.55
33151;BME280;19508;42.578;23.416;2022-12-11T04:27:04;91635.34;;;15.19;62.92
33151;BME280;19508;42.578;23.416;2022-12-11T04:29:29;91651.41;;;15.36;62.39
33151;BME280;19508;42.578;23.416;2022-12-11T04:31:55;91671.28;;;15.28;62.82
33151;BME280;19508;42.578;23.416;2022-12-11T04:34:21;91697.66;;;15.19;62.76
33151;BME280;19508;42.578;23.416;2022-12-11T04:36:46;91697.50;;;15.36;61.70
33151;BME280;19508;42.578;23.416;2022-12-11T04:39:26;91687.50;;;15.49;61.41
33151;BME280;19508;42.578;23.416;2022-12-11T04:41:51;91705.53;;;15.33;60.89
33151;BME280;19508;42.578;23.416;2022-12-11T04:44:17;91716.31;;;15.53;59.24
33151;BME280;19508;42.578;23.416;2022-12-11T04:46:42;91710.25;;;15.57;59.10
33151;BME280;19508;42.578;23.416;2022-12-11T04:49:08;91722.06;;;15.40;59.38
33151;BME280;19508;42.578;23.416;2022-12-11T04:51:34;91704.19;;;15.39;59.12
33151;BME280;19508;42.578;23.416;2022-12-11T04:53:59;91712.81;;;15.53;58.70
33151;BME280;19508;42.578;23.416;2022-12-11T04:56:25;91707.63;;;15.48;57.90
33151;BME280;19508;42.578;23.416;2022-12-11T04:58:50;91705.47;;;15.53;58.12
33151;BME280;19508;42.578;23.416;2022-12-11T05:01:18;91707.94;;;15.46;57.73
33151;BME280;19508;42.578;23.416;2022-12-11T05:03:44;91709.31;;;15.52;57.47
33151;BME280;19508;42.578;23.416;2022-12-11T05:06:10;91723.59;;;15.62;57.95
33151;BME280;19508;42.578;23.416;2022-12-11T05:08:38;91704.56;;;15.49;58.46
33151;BME280;19508;42.578;23.416;2022-12-11T05:11:06;91714.09;;;15.56;57.81
33151;BME280;19508;42.578;23.416;2022-12-11T05:13:32;91722.28;;;15.68;57.26
33151;BME280;19508;42.578;23.416;2022-12-11T05:15:58;91733.13;;;15.68;57.48
33151;BME280;19508;42.578;23.416;2022-12-11T05:18:24;91734.28;;;15.79;57.45
33151;BME280;19508;42.578;23.416;2022-12-11T05:20:54;91733.47;;;15.78;57.84
33151;BME280;19508;42.578;23.416;2022-12-11T05:23:20;91722.28;;;15.68;57.46
33151;BME280;19508;42.578;23.416;2022-12-11T05:25:59;91716.63;;;15.40;57.50
33151;BME280;19508;42.578;23.416;2022-12-11T05:28:28;91716.84;;;15.68;57.44
33151;BME280;19508;42.578;23.416;2022-12-11T05:30:57;91723.19;;;15.72;57.89
33151;BME280;19508;42.578;23.416;2022-12-11T05:33:23;91715.06;;;15.84;58.17
33151;BME280;19508;42.578;23.416;2022-12-11T05:35:49;91703.19;;;15.76;58.13
33151;BME280;19508;42.578;23.416;2022-12-11T05:38:15;91710.53;;;15.64;58.10
33151;BME280;19508;42.578;23.416;2022-12-11T05:40:40;91710.53;;;15.64;57.99
33151;BME280;19508;42.578;23.416;2022-12-11T05:43:06;91687.16;;;15.50;58.55
33151;BME280;19508;42.578;23.416;2022-12-11T05:45:32;91694.25;;;15.64;58.42
33151;BME280;19508;42.578;23.416;2022-12-11T05:47:58;91698.72;;;15.60;58.51
33151;BME280;19508;42.578;23.416;2022-12-11T05:50:23;91676.38;;;15.63;58.58
33151;BME280;19508;42.578;23.416;2022-12-11T05:52:48;91675.03;;;15.69;57.80
33151;BME280;19508;42.578;23.416;2022-12-11T05:55:14;91661.44;;;15.57;58.42
33151;BME280;19508;42.578;23.416;2022-12-11T05:57:39;91659.56;;;15.36;58.56
33151;BME280;19508;42.578;23.416;2022-12-11T06:00:06;91591.91;;;15.52;58.37
33151;BME280;19508;42.578;23.416;2022-12-11T06:02:34;91660.56;;;15.77;57.80
33151;BME280;19508;42.578;23.416;2022-12-11T06:04:59;91661.72;;;15.88;57.50
33151;BME280;19508;42.578;23.416;2022-12-11T06:07:24;91661.94;;;15.83;57.73
33151;BME280;19508;42.578;23.416;2022-12-11T06:09:50;91672.69;;;15.92;57.99
33151;BME280;19508;42.578;23.416;2022-12-11T06:12:15;91693.28;;;15.60;57.91
33151;BME280;19508;42.578;23.416;2022-12-11T06:14:41;91683.63;;;15.71;58.29
33151;BME280;19508;42.578;23.416;2022-12-11T06:17:06;91701.41;;;15.47;59.78
33151;BME280;19508;42.578;23.416;2022-12-11T06:19:32;91693.72;;;15.49;58.84
33151;BME280;19508;42.578;23.416;2022-12-11T06:21:57;91725.03;;;15.59;59.33
33151;BME280;19508;42.578;23.416;2022-12-11T06:24:22;91707.59;;;15.69;58.59
33151;BME280;19508;42.578;23.416;2022-12-11T06:26:48;91718.47;;;15.48;59.94
33151;BME280;19508;42.578;23.416;2022-12-11T06:29:13;91723.75;;;15.44;61.22
33151;BME280;19508;42.578;23.416;2022-12-11T06:31:39;91730.91;;;15.28;62.31
33151;BME280;19508;42.578;23.416;2022-12-11T06:34:04;91725.63;;;15.32;62.48
33151;BME280;19508;42.578;23.416;2022-12-11T06:36:30;91720.22;;;15.11;61.00
33151;BME280;19508;42.578;23.416;2022-12-11T06:38:55;91738.31;;;15.19;61.36
33151;BME280;19508;42.578;23.416;2022-12-11T06:41:21;91716.22;;;15.29;60.91
33151;BME280;19508;42.578;23.416;2022-12-11T06:43:46;91738.69;;;15.50;60.48
33151;BME280;19508;42.578;23.416;2022-12-11T06:46:14;91738.56;;;15.68;59.77
33151;BME280;19508;42.578;23.416;2022-12-11T06:48:41;91740.03;;;15.65;59.64
33151;BME280;19508;42.578;23.416;2022-12-11T06:51:09;91745.47;;;15.77;58.69
33151;BME280;19508;42.578;23.416;2022-12-11T06:53:36;91746.88;;;15.63;59.91
33151;BME280;19508;42.578;23.416;2022-12-11T06:56:10;91748.69;;;16.04;57.90
33151;BME280;19508;42.578;23.416;2022-12-11T06:58:36;91746.22;;;16.11;58.13
33151;BME280;19508;42.578;23.416;2022-12-11T07:01:03;91750.50;;;16.00;58.02
33151;BME280;19508;42.578;23.416;2022-12-11T07:03:29;91744.75;;;16.14;58.14
33151;BME280;19508;42.578;23.416;2022-12-11T07:06:01;91742.94;;;16.30;58.24
33151;BME280;19508;42.578;23.416;2022-12-11T07:08:28;91724.19;;;16.37;57.28
33151;BME280;19508;42.578;23.416;2022-12-11T07:10:53;91728.25;;;16.06;58.27
33151;BME280;19508;42.578;23.416;2022-12-11T07:13:18;91732.03;;;15.81;58.44
33151;BME280;19508;42.578;23.416;2022-12-11T07:15:44;91734.91;;;16.09;57.92
33151;BME280;19508;42.578;23.416;2022-12-11T07:18:09;91736.38;;;16.19;58.13
33151;BME280;19508;42.578;23.416;2022-12-11T07:20:35;91743.41;;;16.20;58.26
33151;BME280;19508;42.578;23.416;2022-12-11T07:23:00;91752.94;;;16.50;57.62
33151;BME280;19508;42.578;23.416;2022-12-11T07:25:25;91752.03;;;16.71;56.87
33151;BME280;19508;42.578;23.416;2022-12-11T07:27:51;91759.28;;;16.79;56.58
33151;BME280;19508;42.578;23.416;2022-12-11T07:30:16;91754.38;;;16.97;57.44
33151;BME280;19508;42.578;23.416;2022-12-11T07:32:42;91765.38;;;16.51;57.62
33151;BME280;19508;42.578;23.416;2022-12-11T07:35:07;91767.84;;;16.32;57.99
33151;BME280;19508;42.578;23.416;2022-12-11T07:37:33;91761.75;;;16.35;57.89
33151;BME280;19508;42.578;23.416;2022-12-11T07:39:58;91779.16;;;16.46;58.66
33151;BME280;19508;42.578;23.416;2022-12-11T07:42:24;91784.50;;;16.55;57.83
33151;BME280;19508;42.578;23.416;2022-12-11T07:44:49;91773.97;;;16.65;57.76
33151;BME280;19508;42.578;23.416;2022-12-11T07:47:15;91782.56;;;17.04;57.47
33151;BME280;19508;42.578;23.416;2022-12-11T07:49:40;91794.13;;;17.01;57.30
33151;BME280;19508;42.578;23.416;2022-12-11T07:52:05;91789.81;;;17.12;56.60
33151;BME280;19508;42.578;23.416;2022-12-11T07:54:31;91778.25;;;17.15;56.15
33151;BME280;19508;42.578;23.416;2022-12-11T07:56:56;91791.59;;;17.20;56.15
33151;BME280;19508;42.578;23.416;2022-12-11T07:59:21;91791.00;;;17.39;54.99
33151;BME280;19508;42.578;23.416;2022-12-11T08:01:47;91794.72;;;17.47;55.63
33151;BME280;19508;42.578;23.416;2022-12-11T08:04:12;91788.94;;;17.89;53.80
33151;BME280;19508;42.578;23.416;2022-12-11T08:06:41;91792.28;;;17.98;54.05
33151;BME280;19508;42.578;23.416;2022-12-11T08:09:10;91793.69;;;18.08;53.04
33151;BME280;19508;42.578;23.416;2022-12-11T08:11:36;91809.19;;;18.19;53.11
33151;BME280;19508;42.578;23.416;2022-12-11T08:14:03;91800.94;;;18.31;52.88
33151;BME280;19508;42.578;23.416;2022-12-11T08:16:30;91793.03;;;18.26;53.03
33151;BME280;19508;42.578;23.416;2022-12-11T08:18:56;91787.56;;;18.26;52.97
33151;BME280;19508;42.578;23.416;2022-12-11T08:21:24;91817.81;;;17.93;53.66
33151;BME280;19508;42.578;23.416;2022-12-11T08:23:50;91805.19;;;18.01;53.12
33151;BME280;19508;42.578;23.416;2022-12-11T08:26:27;91795.66;;;18.23;52.21
33151;BME280;19508;42.578;23.416;2022-12-11T08:28:54;91802.94;;;18.19;52.28
33151;BME280;19508;42.578;23.416;2022-12-11T08:31:20;91795.59;;;18.35;53.08
33151;BME280;19508;42.578;23.416;2022-12-11T08:33:48;91792.66;;;18.12;52.54
33151;BME280;19508;42.578;23.416;2022-12-11T08:36:16;91788.75;;;18.41;52.40
33151;BME280;19508;42.578;23.416;2022-12-11T08:38:42;91787.31;;;18.16;52.73
33151;BME280;19508;42.578;23.416;2022-12-11T08:41:11;91785.63;;;17.55;53.65
33151;BME280;19508;42.578;23.416;2022-12-11T08:43:37;91798.53;;;17.58;54.71
33151;BME280;19508;42.578;23.416;2022-12-11T08:46:04;91780.38;;;17.62;54.09
33151;BME280;19508;42.578;23.416;2022-12-11T08:48:29;91775.16;;;17.97;54.19
33151;BME280;19508;42.578;23.416;2022-12-11T08:51:01;91764.50;;;18.20;53.75
33151;BME280;19508;42.578;23.416;2022-12-11T08:53:28;91783.94;;;18.98;50.58
33151;BME280;19508;42.578;23.416;2022-12-11T08:56:02;91778.63;;;19.75;48.37
33151;BME280;19508;42.578;23.416;2022-12-11T08:58:28;91773.38;;;20.28;47.24
33151;BME280;19508;42.578;23.416;2022-12-11T09:00:54;91782.28;;;20.25;48.21
33151;BME280;19508;42.578;23.416;2022-12-11T09:03:20;91779.94;;;21.15;46.86
33151;BME280;19508;42.578;23.416;2022-12-11T09:05:45;91784.44;;;21.87;43.79
33151;BME280;19508;42.578;23.416;2022-12-11T09:08:11;91780.72;;;22.32;43.90
33151;BME280;19508;42.578;23.416;2022-12-11T09:10:36;91785.22;;;22.51;42.72
33151;BME280;19508;42.578;23.416;2022-12-11T09:13:01;91780.81;;;23.31;39.32
33151;BME280;19508;42.578;23.416;2022-12-11T09:15:27;91794.75;;;21.63;43.06
33151;BME280;19508;42.578;23.416;2022-12-11T09:17:52;91779.22;;;21.75;42.28
33151;BME280;19508;42.578;23.416;2022-12-11T09:20:17;91784.31;;;21.76;43.65
33151;BME280;19508;42.578;23.416;2022-12-11T09:22:43;91785.31;;;21.91;42.85
33151;BME280;19508;42.578;23.416;2022-12-11T09:25:08;91774.06;;;21.39;44.46
33151;BME280;19508;42.578;23.416;2022-12-11T09:27:34;91770.53;;;21.99;42.39
33151;BME280;19508;42.578;23.416;2022-12-11T09:29:59;91754.56;;;21.75;42.58
33151;BME280;19508;42.578;23.416;2022-12-11T09:32:25;91755.88;;;21.84;43.23
33151;BME280;19508;42.578;23.416;2022-12-11T09:34:50;91758.00;;;21.98;42.44
33151;BME280;19508;42.578;23.416;2022-12-11T09:37:16;91758.59;;;21.84;41.70
33151;BME280;19508;42.578;23.416;2022-12-11T09:39:41;91756.94;;;21.76;42.68
33151;BME280;19508;42.578;23.416;2022-12-11T09:42:17;91761.31;;;21.51;43.06
33151;BME280;19508;42.578;23.416;2022-12-11T09:47:33;91750.78;;;20.31;45.03
33151;BME280;19508;42.578;23.416;2022-12-11T09:55:23;91748.63;;;20.86;44.05
33151;BME280;19508;42.578;23.416;2022-12-11T09:58:00;91750.88;;;20.80;44.86
33151;BME280;19508;42.578;23.416;2022-12-11T10:00:54;91755.16;;;21.04;43.90
33151;BME280;19508;42.578;23.416;2022-12-11T10:16:39;91729.25;;;20.07;47.72
33151;BME280;19508;42.578;23.416;2022-12-11T10:19:22;91731.84;;;19.57;48.53
33151;BME280;19508;42.578;23.416;2022-12-11T10:21:50;91741.94;;;19.57;49.00
33151;BME280;19508;42.578;23.416;2022-12-11T10:26:58;91742.94;;;18.78;52.89
33151;BME280;19508;42.578;23.416;2022-12-11T10:29:27;91744.44;;;18.13;57.37
33151;BME280;19508;42.578;23.416;2022-12-11T10:31:55;91745.03;;;17.50;60.70
33151;BME280;19508;42.578;23.416;2022-12-11T10:34:38;91743.53;;;17.25;62.14
33151;BME280;19508;42.578;23.416;2022-12-11T10:37:06;91748.38;;;17.03;62.52
33151;BME280;19508;42.578;23.416;2022-12-11T10:39:31;91747.19;;;17.16;60.42
33151;BME280;19508;42.578;23.416;2022-12-11T10:41:57;91738.41;;;16.95;63.71
33151;BME280;19508;42.578;23.416;2022-12-11T10:44:28;91741.88;;;17.48;61.83
33151;BME280;19508;42.578;23.416;2022-12-11T10:47:07;91730.41;;;18.74;59.68
33151;BME280;19508;42.578;23.416;2022-12-11T10:49:35;91712.41;;;19.24;59.66
33151;BME280;19508;42.578;23.416;2022-12-11T10:52:01;91718.06;;;18.80;61.17
33151;BME280;19508;42.578;23.416;2022-12-11T10:54:42;91727.13;;;18.05;61.76
33151;BME280;19508;42.578;23.416;2022-12-11T10:57:09;91720.31;;;17.55;64.66
33151;BME280;19508;42.578;23.416;2022-12-11T10:59:48;91735.53;;;17.16;65.73
33151;BME280;19508;42.578;23.416;2022-12-11T11:02:41;91742.97;;;16.79;65.73
33151;BME280;19508;42.578;23.416;2022-12-11T11:05:27;91743.72;;;16.30;68.97
33151;BME280;19508;42.578;23.416;2022-12-11T11:08:18;91719.22;;;15.69;71.63
33151;BME280;19508;42.578;23.416;2022-12-11T11:10:59;91728.09;;;15.58;71.17
33151;BME280;19508;42.578;23.416;2022-12-11T11:13:30;91729.97;;;15.66;69.38
33151;BME280;19508;42.578;23.416;2022-12-11T11:16:05;91718.28;;;16.11;70.54
33151;BME280;19508;42.578;23.416;2022-12-11T11:18:32;91722.50;;;16.32;71.17
33151;BME280;19508;42.578;23.416;2022-12-11T11:20:59;91711.63;;;16.69;69.86
33151;BME280;19508;42.578;23.416;2022-12-11T11:23:25;91705.59;;;17.28;69.10
33151;BME280;19508;42.578;23.416;2022-12-11T11:26:10;91694.84;;;17.75;66.14
33151;BME280;19508;42.578;23.416;2022-12-11T11:28:40;91688.72;;;17.51;67.10
33151;BME280;19508;42.578;23.416;2022-12-11T11:31:12;91685.16;;;17.62;65.61
33151;BME280;19508;42.578;23.416;2022-12-11T11:34:13;91696.47;;;18.08;64.44
33151;BME280;19508;42.578;23.416;2022-12-11T11:36:32;91691.03;;;18.40;59.82
33151;BME280;19508;42.578;23.416;2022-12-11T11:44:14;91678.59;;;18.58;60.68
33151;BME280;19508;42.578;23.416;2022-12-11T11:46:46;91684.25;;;18.65;60.61
33151;BME280;19508;42.578;23.416;2022-12-11T11:51:59;91682.38;;;18.53;60.67
33151;BME280;19508;42.578;23.416;2022-12-11T11:54:32;91672.38;;;18.42;62.69
33151;BME280;19508;42.578;23.416;2022-12-11T11:57:04;91664.63;;;18.59;60.40
33151;BME280;19508;42.578;23.416;2022-12-11T11:59:44;91681.97;;;18.36;60.93
33151;BME280;19508;42.578;23.416;2022-12-11T12:02:16;91668.78;;;17.46;61.34
33151;BME280;19508;42.578;23.416;2022-12-11T12:04:44;91676.19;;;17.62;60.88
33151;BME280;19508;42.578;23.416;2022-12-11T12:07:18;91679.75;;;17.50;60.74
33151;BME280;19508;42.578;23.416;2022-12-11T12:09:59;91674.59;;;17.45;60.71
33151;BME280;19508;42.578;23.416;2022-12-11T12:12:48;91676.63;;;17.64;61.30
33151;BME280;19508;42.578;23.416;2022-12-11T12:15:29;91678.97;;;17.49;60.88
33151;BME280;19508;42.578;23.416;2022-12-11T12:18:19;91665.38;;;17.22;62.31
33151;BME280;19508;42.578;23.416;2022-12-11T12:21:11;91669.19;;;17.33;62.10
33151;BME280;19508;42.578;23.416;2022-12-11T12:29:14;91663.53;;;16.45;63.40
33151;BME280;19508;42.578;23.416;2022-12-11T12:37:49;91676.19;;;16.29;63.08
33151;BME280;19508;42.578;23.416;2022-12-11T12:40:31;91681.97;;;16.03;63.96
33151;BME280;19508;42.578;23.416;2022-12-11T12:46:41;91680.72;;;16.13;63.95
33151;BME280;19508;42.578;23.416;2022-12-11T12:48:46;91687.06;;;16.29;64.28
33151;BME280;19508;42.578;23.416;2022-12-11T12:51:13;91689.53;;;16.46;62.97
33151;BME280;19508;42.578;23.416;2022-12-11T12:53:47;91689.31;;;16.39;62.92
33151;BME280;19508;42.578;23.416;2022-12-11T12:56:14;91696.91;;;16.21;63.07
33151;BME280;19508;42.578;23.416;2022-12-11T12:58:42;91688.53;;;16.14;64.58
33151;BME280;19508;42.578;23.416;2022-12-11T13:03:59;91701.53;;;16.21;63.76
33151;BME280;19508;42.578;23.416;2022-12-11T13:09:08;91697.34;;;15.53;66.11
33151;BME280;19508;42.578;23.416;2022-12-11T13:11:34;91708.63;;;14.89;67.85
33151;BME280;19508;42.578;23.416;2022-12-11T13:16:44;91735.38;;;13.47;72.27
33151;BME280;19508;42.578;23.416;2022-12-11T13:19:26;91732.56;;;13.00;73.91
33151;BME280;19508;42.578;23.416;2022-12-11T13:24:45;91769.81;;;12.46;75.28
33151;BME280;19508;42.578;23.416;2022-12-11T13:27:24;91782.00;;;11.86;76.97
33151;BME280;19508;42.578;23.416;2022-12-11T13:29:50;91797.72;;;11.93;76.60
33151;BME280;19508;42.578;23.416;2022-12-11T13:34:43;91813.44;;;10.65;81.07
33151;BME280;19508;42.578;23.416;2022-12-11T13:39:48;91835.00;;;10.24;81.28
33151;BME280;19508;42.578;23.416;2022-12-11T13:42:26;91848.44;;;10.24;80.73
33151;BME280;19508;42.578;23.416;2022-12-11T13:44:53;91852.56;;;9.75;82.23
33151;BME280;19508;42.578;23.416;2022-12-11T13:47:19;91844.94;;;9.50;83.97
33151;BME280;19508;42.578;23.416;2022-12-11T13:49:48;91849.13;;;9.04;84.50
33151;BME280;19508;42.578;23.416;2022-12-11T13:52:23;91856.31;;;9.09;85.09
33151;BME280;19508;42.578;23.416;2022-12-11T13:54:54;91879.41;;;8.91;84.51
33151;BME280;19508;42.578;23.416;2022-12-11T13:57:21;91855.50;;;8.28;85.85
33151;BME280;19508;42.578;23.416;2022-12-11T13:59:52;91894.66;;;8.05;86.60
33151;BME280;19508;42.578;23.416;2022-12-11T14:02:30;91882.06;;;8.30;87.20
33151;BME280;19508;42.578;23.416;2022-12-11T14:05:00;91904.09;;;7.98;86.39
33151;BME280;19508;42.578;23.416;2022-12-11T14:07:29;91911.91;;;7.94;87.00
33151;BME280;19508;42.578;23.416;2022-12-11T14:10:02;91910.47;;;8.02;86.71
33151;BME280;19508;42.578;23.416;2022-12-11T14:12:30;91912.88;;;7.79;88.41
33151;BME280;19508;42.578;23.416;2022-12-11T14:14:58;91910.97;;;7.80;87.66
33151;BME280;19508;42.578;23.416;2022-12-11T14:17:29;91920.75;;;7.66;88.27
33151;BME280;19508;42.578;23.416;2022-12-11T14:19:57;91926.06;;;7.71;87.88